Time;durP1;ratioP1;P1;durP2;ratioP2;P2;SDS_P1;SDS_P2;PMS_P1;PMS_P2;Temp;Humidity;BMP_temperature;BMP_pressure;BME280_temperature;BME280_humidity;BME280_pressure;Samples;Min_cycle;Max_cycle;Signal;HPM_P1;HPM_P2
2022/02/26 00:07:59;;;;;;;13.60;1.90;;;8.90;68.60;;;;;;20747862;28;20462;-79
2022/02/26 00:17:59;;;;;;;6.35;1.55;;;8.90;68.60;;;;;;20730936;28;20061;-75
2022/02/26 00:28:00;;;;;;;7.75;1.25;;;8.90;68.60;;;;;;20747642;28;20041;-78
2022/02/26 00:38:00;;;;;;;7.63;1.80;;;8.90;68.60;;;;;;20745478;28;20034;-75
2022/02/26 00:48:01;;;;;;;9.57;2.33;;;8.90;68.60;;;;;;20733912;28;20033;-75
2022/02/26 00:58:04;;;;;;;10.23;2.47;;;8.90;68.50;;;;;;20762286;28;20077;-80
2022/02/26 01:08:04;;;;;;;9.27;1.77;;;8.80;68.40;;;;;;20760717;28;20692;-77
2022/02/26 01:18:05;;;;;;;10.73;1.73;;;8.90;68.50;;;;;;20760843;28;20038;-76
2022/02/26 01:28:05;;;;;;;7.55;1.30;;;8.80;68.40;;;;;;20759344;28;20072;-76
2022/02/26 01:38:07;;;;;;;3.53;1.33;;;8.80;68.50;;;;;;20741781;28;20040;-74
2022/02/26 01:48:07;;;;;;;7.20;1.63;;;8.80;68.40;;;;;;20742003;28;20049;-76
2022/02/26 01:58:08;;;;;;;7.13;1.60;;;8.80;68.50;;;;;;20755889;28;20398;-76
2022/02/26 02:08:10;;;;;;;8.90;1.42;;;8.80;68.50;;;;;;20740556;28;20453;-75
2022/02/26 02:18:12;;;;;;;11.40;1.70;;;8.80;68.40;;;;;;20722156;28;20061;-75
2022/02/26 02:28:13;;;;;;;9.68;1.58;;;8.80;68.50;;;;;;20722419;28;20073;-74
2022/02/26 02:38:16;;;;;;;8.55;1.83;;;8.80;68.50;;;;;;20754520;28;20034;-75
2022/02/26 02:48:17;;;;;;;10.13;1.30;;;8.80;68.50;;;;;;20720707;28;20044;-76
2022/02/26 02:58:21;;;;;;;6.93;2.03;;;8.80;68.50;;;;;;20736695;28;20042;-75
2022/02/26 03:08:24;;;;;;;6.43;1.65;;;8.80;68.60;;;;;;20735898;28;20038;-75
2022/02/26 03:18:24;;;;;;;7.60;1.45;;;8.80;68.60;;;;;;20748996;28;20038;-75
2022/02/26 03:28:26;;;;;;;6.53;1.48;;;8.80;68.60;;;;;;20717659;28;20034;-75
2022/02/26 03:38:26;;;;;;;6.00;1.30;;;8.80;68.60;;;;;;20748847;28;20092;-75
2022/02/26 03:48:27;;;;;;;10.25;1.80;;;8.80;68.60;;;;;;20732994;28;20034;-74
2022/02/26 03:58:28;;;;;;;4.97;1.70;;;8.80;69.30;;;;;;20732425;28;20128;-75
2022/02/26 04:08:30;;;;;;;5.85;1.50;;;8.80;68.70;;;;;;20714641;28;20030;-75
2022/02/26 04:18:31;;;;;;;9.82;1.70;;;8.80;68.70;;;;;;20715602;28;20390;-75
2022/02/26 04:28:31;;;;;;;7.32;1.55;;;8.80;68.80;;;;;;20671046;28;20042;-75
2022/02/26 04:38:35;;;;;;;3.63;1.30;;;8.80;68.80;;;;;;20667205;28;20042;-76
2022/02/26 04:48:36;;;;;;;5.90;1.73;;;8.80;68.80;;;;;;20665091;28;20282;-75
2022/02/26 04:58:37;;;;;;;9.55;1.92;;;8.80;68.80;;;;;;20647383;28;20034;-75
2022/02/26 05:08:37;;;;;;;8.38;2.10;;;8.80;68.80;;;;;;20648068;28;20374;-75
2022/02/26 05:18:38;;;;;;;13.07;3.03;;;8.80;68.90;;;;;;20647967;28;20316;-75
2022/02/26 05:28:39;;;;;;;7.40;1.30;;;8.80;68.90;;;;;;20664521;28;20126;-74
2022/02/26 05:38:40;;;;;;;9.77;1.33;;;8.80;68.90;;;;;;20672262;28;20466;-76
2022/02/26 05:48:40;;;;;;;11.25;2.65;;;8.80;68.90;;;;;;20661237;28;20041;-75
2022/02/26 05:58:41;;;;;;;9.57;2.00;;;8.80;68.90;;;;;;20660242;28;20049;-75
2022/02/26 06:08:42;;;;;;;8.88;2.05;;;8.80;68.90;;;;;;20677238;28;20109;-75
2022/02/26 06:18:42;;;;;;;5.40;1.50;;;8.90;68.70;;;;;;20658974;28;20053;-75
2022/02/26 06:28:43;;;;;;;3.38;1.55;;;9.00;68.60;;;;;;20658990;28;20406;-76
2022/02/26 06:38:43;;;;;;;10.80;2.58;;;9.00;68.40;;;;;;20689017;28;20482;-76
2022/02/26 06:48:44;;;;;;;8.63;1.65;;;9.00;68.40;;;;;;20752302;28;20053;-76
2022/02/26 06:58:45;;;;;;;7.45;1.73;;;9.00;68.50;;;;;;20752435;28;20088;-75
2022/02/26 07:08:45;;;;;;;6.25;1.60;;;8.90;68.50;;;;;;20719366;28;20038;-75
2022/02/26 07:18:46;;;;;;;8.63;1.42;;;8.90;68.50;;;;;;20734866;28;20034;-77
2022/02/26 07:28:46;;;;;;;10.57;1.27;;;8.90;68.60;;;;;;20730406;28;20049;-78
2022/02/26 07:38:47;;;;;;;3.70;1.33;;;8.90;68.60;;;;;;20732596;28;20493;-76
2022/02/26 07:48:48;;;;;;;7.10;1.83;;;8.90;68.70;;;;;;20730229;28;20061;-78
2022/02/26 07:58:48;;;;;;;9.50;2.53;;;8.90;68.80;;;;;;20744675;28;20041;-84
2022/02/26 08:08:49;;;;;;;6.32;1.40;;;8.80;68.70;;;;;;20745728;28;20030;-77
2022/02/26 08:18:49;;;;;;;7.40;1.50;;;8.80;68.80;;;;;;20728671;28;20397;-77
2022/02/26 08:28:50;;;;;;;5.90;1.58;;;8.80;68.80;;;;;;20712759;28;20069;-78
2022/02/26 08:38:52;;;;;;;5.00;1.57;;;8.80;68.80;;;;;;20727170;28;20117;-78
2022/02/26 08:48:54;;;;;;;5.22;1.70;;;8.90;68.90;;;;;;20744932;28;20756;-78
2022/02/26 08:58:54;;;;;;;5.85;1.83;;;8.90;68.80;;;;;;20733628;28;20124;-75
2022/02/26 09:08:55;;;;;;;10.27;4.35;;;8.90;68.90;;;;;;20735376;28;20064;-80
2022/02/26 09:18:56;;;;;;;7.47;1.55;;;8.90;68.80;;;;;;20840799;28;20037;-78
2022/02/26 09:28:56;;;;;;;7.72;1.75;;;8.90;68.70;;;;;;20825870;28;20041;-76
2022/02/26 09:38:57;;;;;;;3.93;1.50;;;8.90;68.70;;;;;;20824282;28;20065;-74
2022/02/26 09:48:57;;;;;;;19.02;2.35;;;9.00;68.70;;;;;;20823844;28;20296;-74
2022/02/26 09:58:58;;;;;;;9.23;1.88;;;9.00;68.50;;;;;;20839564;28;20049;-75
2022/02/26 10:09:00;;;;;;;6.30;1.67;;;9.10;68.30;;;;;;20821538;28;20040;-74
2022/02/26 10:19:01;;;;;;;3.15;1.20;;;9.10;68.20;;;;;;20821130;28;20041;-74
2022/02/26 10:29:11;;;;;;;7.20;1.35;;;9.10;68.10;;;;;;20818666;28;20040;-77
2022/02/26 10:39:25;;;;;;;5.78;1.77;;;9.10;67.90;;;;;;20833708;28;20049;-77
2022/02/26 10:49:26;;;;;;;6.35;1.50;;;9.10;67.80;;;;;;20817806;28;20049;-75
2022/02/26 10:59:31;;;;;;;8.60;1.65;;;9.10;67.80;;;;;;20780740;28;20031;-78
2022/02/26 11:09:32;;;;;;;4.35;1.15;;;9.10;67.70;;;;;;20696301;28;20037;-81
2022/02/26 11:19:32;;;;;;;6.57;1.10;;;9.10;67.70;;;;;;20689352;28;20120;-74
2022/02/26 11:29:33;;;;;;;5.60;0.93;;;9.10;67.70;;;;;;21150595;23;20512;-78
2022/02/26 11:39:37;;;;;;;3.35;1.08;;;9.10;67.70;;;;;;20878364;28;20331;-82
2022/02/26 11:49:38;;;;;;;7.18;1.60;;;9.10;67.50;;;;;;20877138;28;20075;-74
2022/02/26 11:59:40;;;;;;;4.28;0.60;;;9.10;67.60;;;;;;20910643;28;20483;-79
2022/02/26 12:10:02;;;;;;;4.05;1.13;;;9.10;67.60;;;;;;20895193;28;20295;-78
2022/02/26 12:20:16;;;;;;;4.07;0.60;;;9.10;67.60;;;;;;20876615;28;20094;-73
2022/02/26 12:30:18;;;;;;;2.67;0.75;;;9.10;67.60;;;;;;20876918;28;20102;-73
2022/02/26 12:40:19;;;;;;;4.13;0.82;;;9.10;67.50;;;;;;20876078;28;20692;-72
2022/02/26 12:50:20;;;;;;;4.47;0.80;;;9.10;67.40;;;;;;20924802;28;20173;-78
2022/02/26 13:00:23;;;;;;;4.35;1.27;;;9.10;67.30;;;;;;20875031;28;20052;-73
2022/02/26 13:10:37;;;;;;;4.65;0.98;;;9.10;67.20;;;;;;20907433;28;20040;-78
2022/02/26 13:20:37;;;;;;;4.20;0.65;;;9.10;67.20;;;;;;20875030;28;20036;-74
2022/02/26 13:30:38;;;;;;;4.15;0.90;;;9.10;67.20;;;;;;20887435;28;20095;-75
2022/02/26 13:40:39;;;;;;;3.63;0.63;;;9.10;67.20;;;;;;20903107;28;20045;-79
2022/02/26 13:50:39;;;;;;;4.07;0.55;;;9.10;67.20;;;;;;20886247;28;20041;-81
2022/02/26 14:00:40;;;;;;;4.07;0.98;;;9.10;67.20;;;;;;20886657;28;20037;-80
2022/02/26 14:10:41;;;;;;;3.78;0.60;;;9.00;67.20;;;;;;20920106;28;20519;-81
2022/02/26 14:20:42;;;;;;;2.08;0.55;;;9.00;67.20;;;;;;20919789;28;20033;-81
2022/02/26 14:30:43;;;;;;;3.67;0.73;;;9.10;67.20;;;;;;20901435;28;20045;-79
2022/02/26 14:40:43;;;;;;;3.35;0.43;;;9.00;67.10;;;;;;20912861;28;20331;-82
2022/02/26 14:50:44;;;;;;;5.85;0.98;;;9.00;67.20;;;;;;20880822;28;20121;-82
2022/02/26 15:00:44;;;;;;;1.20;0.40;;;9.00;67.40;;;;;;20900480;28;20392;-81
2022/02/26 15:10:45;;;;;;;1.77;0.52;;;9.10;67.60;;;;;;20916654;28;20043;-82
2022/02/26 15:20:46;;;;;;;1.15;0.50;;;9.10;67.70;;;;;;20898899;28;20041;-83
2022/02/26 15:30:46;;;;;;;1.27;0.40;;;9.10;67.80;;;;;;20897229;28;20037;-80
2022/02/26 15:40:47;;;;;;;0.77;0.32;;;9.10;67.80;;;;;;20897208;28;20036;-82
2022/02/26 15:50:47;;;;;;;1.65;0.45;;;9.20;67.90;;;;;;20880500;28;20107;-81
2022/02/26 16:00:48;;;;;;;0.65;0.45;;;9.20;67.90;;;;;;20895524;28;20029;-84
2022/02/26 16:10:49;;;;;;;2.05;0.70;;;9.20;68.00;;;;;;20879466;28;20047;-82
2022/02/26 16:20:53;;;;;;;1.73;0.32;;;9.20;68.00;;;;;;20893756;28;20029;-81
2022/02/26 16:30:54;;;;;;;5.57;0.40;;;9.20;68.10;;;;;;20910660;28;20052;-82
2022/02/26 16:40:55;;;;;;;0.70;0.30;;;9.20;68.10;;;;;;20877051;28;20135;-81
2022/02/26 16:50:55;;;;;;;1.23;0.50;;;9.30;68.20;;;;;;20876235;28;20064;-82
2022/02/26 17:00:56;;;;;;;0.50;0.32;;;9.20;68.30;;;;;;20871509;28;20455;-78
2022/02/26 17:10:56;;;;;;;0.73;0.20;;;9.20;68.40;;;;;;20894033;28;20061;-85
2022/02/26 17:20:57;;;;;;;0.82;0.20;;;9.20;68.40;;;;;;20854364;28;20132;-79
2022/02/26 17:30:59;;;;;;;0.95;0.40;;;9.20;68.40;;;;;;20875434;28;20044;-78
2022/02/26 17:40:59;;;;;;;0.55;0.40;;;9.20;68.40;;;;;;20889726;28;20701;-79
2022/02/26 17:51:00;;;;;;;0.38;0.13;;;9.10;68.40;;;;;;20900533;28;20123;-79
2022/02/26 18:01:01;;;;;;;2.00;0.40;;;9.10;68.40;;;;;;20918712;28;20036;-76
2022/02/26 18:11:02;;;;;;;1.38;0.80;;;9.10;68.40;;;;;;20886861;28;20048;-74
2022/02/26 18:21:04;;;;;;;1.38;0.40;;;9.10;68.40;;;;;;20885919;28;20033;-74
2022/02/26 18:31:04;;;;;;;1.27;0.40;;;9.10;68.40;;;;;;20886142;28;20047;-73
2022/02/26 18:41:05;;;;;;;0.50;0.37;;;9.10;68.40;;;;;;20902305;28;20580;-73
2022/02/26 18:51:05;;;;;;;1.42;0.68;;;9.00;68.20;;;;;;20901192;28;20283;-74
2022/02/26 19:01:06;;;;;;;0.22;0.20;;;9.00;68.20;;;;;;20899144;28;20128;-73
2022/02/26 19:11:06;;;;;;;0.77;0.55;;;9.00;68.10;;;;;;20855087;28;20032;-74
2022/02/26 19:21:08;;;;;;;1.83;1.02;;;9.00;68.10;;;;;;20865846;28;20048;-77
2022/02/26 19:31:12;;;;;;;6.10;2.28;;;9.00;68.10;;;;;;20898414;28;20520;-73
2022/02/26 19:41:12;;;;;;;3.15;1.67;;;9.10;68.10;;;;;;20913378;28;20167;-73
2022/02/26 19:51:13;;;;;;;2.08;1.40;;;9.00;68.70;;;;;;20862167;28;20115;-75
2022/02/26 20:01:14;;;;;;;3.50;2.17;;;9.00;68.00;;;;;;20860129;28;20032;-75
2022/02/26 20:11:16;;;;;;;3.35;2.00;;;9.00;68.00;;;;;;20908344;28;20028;-73
2022/02/26 20:21:18;;;;;;;9.48;2.15;;;9.00;67.90;;;;;;20892061;28;20469;-74
2022/02/26 20:31:19;;;;;;;4.03;1.88;;;9.00;67.90;;;;;;20853425;28;20068;-74
2022/02/26 20:41:20;;;;;;;3.72;2.08;;;9.00;67.90;;;;;;20884320;28;20029;-71
2022/02/26 20:51:20;;;;;;;3.45;2.28;;;8.90;67.80;;;;;;20886521;28;20044;-71
2022/02/26 21:01:21;;;;;;;4.82;1.73;;;8.90;67.80;;;;;;20851967;28;20124;-71
2022/02/26 21:11:22;;;;;;;6.25;2.90;;;9.00;67.80;;;;;;20903703;28;20085;-70
2022/02/26 21:21:23;;;;;;;2.67;2.20;;;9.00;67.80;;;;;;20866363;28;20034;-71
2022/02/26 21:31:24;;;;;;;6.68;2.15;;;8.90;67.60;;;;;;20900790;28;20417;-71
2022/02/26 21:41:24;;;;;;;5.78;2.42;;;8.90;67.60;;;;;;20903687;28;20033;-71
2022/02/26 21:51:25;;;;;;;4.28;1.65;;;8.90;67.60;;;;;;20919384;28;20064;-73
2022/02/26 22:01:25;;;;;;;3.45;2.10;;;8.90;67.50;;;;;;20885418;28;20043;-73
2022/02/26 22:11:26;;;;;;;3.22;1.42;;;8.90;67.40;;;;;;20884802;28;20037;-71
2022/02/26 22:21:27;;;;;;;3.60;1.92;;;8.90;67.40;;;;;;20882867;28;20068;-70
2022/02/26 22:31:27;;;;;;;3.38;1.50;;;8.90;67.40;;;;;;20899602;28;20113;-70
2022/02/26 22:41:28;;;;;;;3.55;1.85;;;8.90;67.30;;;;;;20866236;28;20037;-70
2022/02/26 22:51:28;;;;;;;3.28;1.30;;;8.90;67.20;;;;;;20865427;28;20040;-70
2022/02/26 23:01:29;;;;;;;3.55;1.33;;;8.80;67.20;;;;;;20880814;28;20068;-72
2022/02/26 23:11:29;;;;;;;2.53;1.37;;;8.80;67.10;;;;;;20880180;28;20503;-70
2022/02/26 23:21:30;;;;;;;2.17;1.48;;;8.80;67.10;;;;;;20862368;28;20386;-71
2022/02/26 23:31:30;;;;;;;2.67;1.40;;;8.80;67.10;;;;;;20878630;28;20067;-70
2022/02/26 23:41:31;;;;;;;1.95;1.33;;;8.80;67.00;;;;;;20865372;28;20131;-70
2022/02/26 23:51:32;;;;;;;4.05;1.40;;;8.80;67.00;;;;;;20861049;28;20036;-70
